Bigfork, Montana
Current Conditions -  °F | °C
As of 7:55 PM on Tuesday 25 Nov 2014 (Local Time) from KGPI Reporting Station
Moderate Fog Moderate Fog  
Wind Chill: 31°   Ceiling: 8500
Heat Index: 31°   Visibility: 0.5mi
Dew Point: 30°   Wind: 0mph
Humidity: 96%   Direction: NA
Pressure: 30.12"   Gusts: NA
Location:  48.06°N, 114.08°W
Report Text: KGPI 260255Z 00000KT 1/2SM FZFG OVC085 M01/M01 A3012 RMK AO2 SLP227 T10061011 53001
Loading
Personal Weather Stations






























Interactive Weather Map New forecast layout! Learn more

10-Day Weather Forecast

Advertisements
Track Severe Weather on mobile